Decatur County Industrial Air Park


Codes: KBGE/BGE
Name: Decatur County Industrial Air Park
City: Bainbridge
Country: United States
Elevation: 141 ft.
Website:
Wikipedia:

Photos at Decatur County Industrial Air Park


   Photos courtesy of SpottingLog. You can add your own sightings and photos by signing up for a free trial today.



No photos found.

Weather at Decatur County Industrial Air Park


Time (UTC)DescriptionTempratureWindCloud coverageVisibilityPressureHumidity
17-Jun-2024 06:00Light Rain23°C7 mph, SE40%10000m1019hPa94%
17-Jun-2024 09:00Broken Clouds23°C7 mph, E60%10000m1018hPa93%
17-Jun-2024 12:00Broken Clouds23°C7 mph, E79%10000m1018hPa91%
17-Jun-2024 15:00Overcast Clouds28°C11 mph, E100%10000m1019hPa61%
17-Jun-2024 18:00Overcast Clouds32°C11 mph, E100%10000m1018hPa47%
17-Jun-2024 21:00Overcast Clouds31°C9 mph, NE100%10000m1015hPa50%
18-Jun-2024 00:00Overcast Clouds29°C9 mph, E100%10000m1016hPa58%
18-Jun-2024 03:00Overcast Clouds27°C11 mph, E100%10000m1017hPa48%
18-Jun-2024 06:00Overcast Clouds24°C9 mph, E100%10000m1018hPa72%
18-Jun-2024 09:00Overcast Clouds22°C9 mph, E87%10000m1017hPa85%
18-Jun-2024 12:00Broken Clouds23°C9 mph, E58%10000m1018hPa84%
18-Jun-2024 15:00Broken Clouds29°C13 mph, E75%10000m1018hPa59%
18-Jun-2024 18:00Light Rain30°C16 mph, E80%10000m1017hPa57%
18-Jun-2024 21:00Overcast Clouds32°C9 mph, E100%10000m1015hPa44%
19-Jun-2024 00:00Overcast Clouds29°C11 mph, E98%10000m1015hPa46%
19-Jun-2024 03:00Overcast Clouds28°C16 mph, E100%10000m1018hPa45%
19-Jun-2024 06:00Overcast Clouds25°C13 mph, E100%10000m1018hPa65%
19-Jun-2024 09:00Overcast Clouds23°C11 mph, E100%10000m1018hPa85%
19-Jun-2024 12:00Overcast Clouds23°C11 mph, E100%10000m1019hPa85%
19-Jun-2024 15:00Overcast Clouds28°C16 mph, E100%10000m1020hPa58%
19-Jun-2024 18:00Overcast Clouds30°C16 mph, E100%10000m1019hPa53%
19-Jun-2024 21:00Overcast Clouds29°C16 mph, E100%10000m1018hPa60%
20-Jun-2024 00:00Overcast Clouds27°C13 mph, E86%10000m1018hPa57%
20-Jun-2024 03:00Overcast Clouds26°C13 mph, E86%10000m1020hPa58%
20-Jun-2024 06:00Overcast Clouds23°C11 mph, E85%10000m1020hPa75%
20-Jun-2024 09:00Broken Clouds21°C11 mph, E51%10000m1020hPa85%
20-Jun-2024 12:00Scattered Clouds22°C11 mph, NE35%10000m1021hPa82%
20-Jun-2024 15:00Clear Sky28°C16 mph, E7%10000m1021hPa55%
20-Jun-2024 18:00Clear Sky32°C16 mph, E3%10000m1020hPa39%
20-Jun-2024 21:00Clear Sky33°C11 mph, NE0%10000m1018hPa33%
21-Jun-2024 00:00Clear Sky28°C16 mph, NE7%10000m1018hPa57%
21-Jun-2024 03:00Clear Sky26°C11 mph, E1%10000m1019hPa53%
21-Jun-2024 06:00Clear Sky23°C7 mph, NE0%10000m1019hPa73%
21-Jun-2024 09:00Clear Sky22°C7 mph, N5%10000m1018hPa79%
21-Jun-2024 12:00Light Rain23°C11 mph, NE7%10000m1018hPa80%
21-Jun-2024 15:00Moderate Rain24°C13 mph, NW100%10000m1017hPa86%
21-Jun-2024 18:00Moderate Rain23°C13 mph, S100%10000m1018hPa93%
21-Jun-2024 21:00Light Rain31°C4 mph, S72%10000m1017hPa57%
22-Jun-2024 00:00Broken Clouds27°C7 mph, NW84%10000m1017hPa76%
22-Jun-2024 03:00Broken Clouds25°C2 mph, NE73%10000m1018hPa85%